​ ​

Форум клана ЧПУшников

Информация о пользователе

Привет, Гость! Войдите или зарегистрируйтесь.


Вы здесь » Форум клана ЧПУшников » Лазерные станки


Лазерные станки

Тем 1 страница 80 из 642

Тема Ответов Просмотров Последнее сообщение
1 Важно: Подскажите новичку 4  Kula  [ 1 2 3  9 ]
818 20167 22-07-2021 11:10:10  botslim
2 Важно: Фото готовых работ выполненных на лазере 2  Администратор  [ 1 2 3  10 ]
907 71234 20-05-2021 13:54:11  Dark Knight
172 10234 22-06-2020 15:49:13  Vera
15 229 28-07-2021 14:15:30  Valera5609
2 54 21-07-2021 17:27:24  maks11
1 57 17-07-2021 12:57:11  Valera5609
1 54 17-07-2021 12:50:52  Valera5609
4 344 14-07-2021 07:18:08  Вассс
0 54 25-06-2021 09:44:27  Виктор2204
4 181 04-06-2021 15:09:22  AndreyV
1 79 25-05-2021 19:00:36  Valera5609
197 8734 18-05-2021 09:24:28  garich
0 78 10-05-2021 08:37:38  Sanana
24 10462 26-04-2021 12:47:19  brainmo
95 14657 21-04-2021 16:00:12  Умняшка
107 6841 21-04-2021 11:09:49  Siga
39 3266 20-04-2021 21:08:30  Valera5609
192 6125 20-04-2021 12:54:35  Prisrak
239 26414 19-04-2021 10:20:09  Kinetic
3 114 15-04-2021 12:48:55  су-24
348 38786 10-04-2021 19:39:34  Jek44
6 155 02-04-2021 15:14:00  Valera5609
23 LaserCAD  Valentin25
10 615 01-04-2021 16:02:13  Сергей Одесса
24 Нужна помощь специалистов!  Мастер на все руки
31 1607 29-03-2021 12:18:15  Владимирская?
25 ortur laser master2-20w  Александр Сихаев
7 216 27-03-2021 21:25:23  Valera5609
1 69 24-03-2021 21:35:31  SNS
1 77 24-03-2021 16:56:07  Radiovolna
0 84 23-03-2021 13:17:34  headbI4
0 97 21-03-2021 13:18:28  headbI4
143 16483 16-03-2021 16:57:36  Valera5609
12 331 15-03-2021 23:02:45  ЮгРФ
32 выбор компрессора  ecto  [ 1 2 3 4 ]
376 16578 15-03-2021 22:39:49  ЮгРФ
2 79 15-03-2021 20:28:32  Rilov
0 121 15-03-2021 19:40:08  lazukin vlad
1 65 14-03-2021 20:10:46  3aBp
23 386 12-03-2021 17:17:15  Valera5609
3 94 10-03-2021 20:42:04  Valera5609
3 136 07-03-2021 22:42:59  Valera5609
349 21372 06-03-2021 02:16:05  CNCshnick
15 205 28-02-2021 05:46:23  Dark Knight
2 89 25-02-2021 23:08:23  комса45
42 AutoLaser и TL-403CB  SmileCat  [ 1 2 ]
174 6843 25-02-2021 18:48:56  musicman3
0 72 25-02-2021 13:02:09  meglauk
0 78 22-02-2021 04:58:55  Фом
5 321 18-02-2021 13:15:29  ydav75
15 452 18-02-2021 12:19:55  ydav75
47 RDworks и Autocad  Nimrod94
4 122 12-02-2021 13:43:46  Valera5609
3 127 10-02-2021 19:08:26  agronom_26
248 34296 05-02-2021 17:50:48  Valera5609
7 158 02-02-2021 09:40:03  Dark Night
3 105 28-01-2021 12:04:03  Valera5609
52 Вопрос по рдворкс  Тимур Гильманов
4 199 26-01-2021 09:54:53  AlexiAlexiAlexi
19 1118 26-01-2021 01:37:16  AlexiAlexiAlexi
22 783 25-01-2021 13:20:58  DeniskaUSSR
10 306 19-01-2021 09:06:39  Silvermilenium_
56 Нужен совет  AlekssnderKuznetsov
15 239 16-01-2021 17:34:08  Valera5609
0 61 22-12-2020 22:53:47  nuriiix
2 141 18-12-2020 00:32:20  Kusss
3 178 13-12-2020 16:01:45  Жмурик
0 97 13-12-2020 13:16:01  Michelinbrat
5 516 10-12-2020 02:03:50  bart68rus
13 1312 08-12-2020 21:04:21  Valera5609
51 2489 08-12-2020 12:49:37  Alex_UnDeR
12 715 07-12-2020 11:04:01  Valera5609
29 393 03-12-2020 21:35:55  anvaleriya
3 108 02-12-2020 16:00:09  Outsider
72 1670 02-12-2020 13:00:09  Kuz
68 Trocen vs RUIDA  ptolik
12 1542 27-11-2020 16:28:06  Cergio
4 315 27-11-2020 15:35:42  CNCshnick
3 160 27-11-2020 03:12:56  CNCshnick
71 RDWorksV8 в CorelDRAW X8  bartilord  [ 1 2 ]
174 17707 27-11-2020 00:37:40  djbratislav
11 124 22-11-2020 15:06:45  Valera5609
1 115 19-11-2020 12:59:21  ilya37rus
1 122 19-11-2020 09:30:35  RaysLightsaber
105 7055 17-11-2020 22:18:53  Valera5609
1 132 16-11-2020 05:17:54  Олександр Га Столяр
1 144 15-11-2020 15:20:17  Дмитрий Шестак
3 529 15-11-2020 15:17:35  Дмитрий Шестак
9 158 09-11-2020 18:45:49  pro100informatika
6 242 08-11-2020 03:54:35  CNCshnick

Вы здесь » Форум клана ЧПУшников » Лазерные станки